createdAt,value
2023-05-18T00:01:41.126Z,3.22
2023-05-18T00:04:08.261Z,3.25
2023-05-18T00:06:34.902Z,3.45
2023-05-18T00:09:01.413Z,3.10
2023-05-18T00:11:27.911Z,4.00
2023-05-18T00:13:54.447Z,3.78
2023-05-18T00:16:27.417Z,3.38
2023-05-18T00:18:54.783Z,3.42
2023-05-18T00:21:24.988Z,3.33
2023-05-18T00:23:54.627Z,3.53
2023-05-18T00:26:23.288Z,3.55
2023-05-18T00:28:52.632Z,3.55
2023-05-18T00:31:19.235Z,3.28
2023-05-18T00:33:45.855Z,3.28
2023-05-18T00:36:12.379Z,3.22
2023-05-18T00:38:38.899Z,3.45
2023-05-18T00:41:05.512Z,3.00
2023-05-18T00:43:32.055Z,3.40
2023-05-18T00:45:58.764Z,3.38
2023-05-18T00:48:26.716Z,3.38
2023-05-18T00:50:54.036Z,3.50
2023-05-18T00:53:23.369Z,3.60
2023-05-18T00:55:49.961Z,3.50
2023-05-18T00:58:17.171Z,3.33
2023-05-18T01:00:47.271Z,3.53
2023-05-18T01:03:15.394Z,3.55
2023-05-18T01:05:47.621Z,3.53
2023-05-18T01:08:17.832Z,3.22
2023-05-18T01:10:50.755Z,3.15
2023-05-18T01:13:31.111Z,3.55
2023-05-18T01:16:02.322Z,3.28
2023-05-18T01:18:38.291Z,2.95
2023-05-18T01:21:31.635Z,3.80
2023-05-18T01:24:25.861Z,3.30
2023-05-18T01:26:57.619Z,3.20
2023-05-18T01:29:29.324Z,3.83
2023-05-18T01:31:55.899Z,3.70
2023-05-18T01:34:22.515Z,3.63
2023-05-18T01:36:49.075Z,3.60
2023-05-18T01:39:16.268Z,3.78
2023-05-18T01:41:56.270Z,3.40
2023-05-18T01:44:38.925Z,3.63
2023-05-18T01:47:16.795Z,4.32
2023-05-18T01:49:51.523Z,3.47
2023-05-18T01:52:37.984Z,3.13
2023-05-18T01:55:06.528Z,3.85
2023-05-18T01:57:35.162Z,3.45
2023-05-18T02:00:04.654Z,3.60
2023-05-18T02:02:31.359Z,3.65
2023-05-18T02:04:57.896Z,3.35
2023-05-18T02:07:24.377Z,3.47
2023-05-18T02:09:51.018Z,3.60
2023-05-18T02:12:17.499Z,3.25
2023-05-18T02:14:44.024Z,3.53
2023-05-18T02:17:11.607Z,3.67
2023-05-18T02:19:38.716Z,3.63
2023-05-18T02:22:09.637Z,3.38
2023-05-18T02:24:36.215Z,3.30
2023-05-18T02:27:02.759Z,3.85
2023-05-18T02:29:32.451Z,3.65
2023-05-18T02:31:59.084Z,3.22
2023-05-18T02:34:27.431Z,3.55
2023-05-18T02:36:57.815Z,3.33
2023-05-18T02:39:27.932Z,3.58
2023-05-18T02:41:54.542Z,3.53
2023-05-18T02:44:21.722Z,3.60
2023-05-18T02:46:48.309Z,3.47
2023-05-18T02:49:14.847Z,2.83
2023-05-18T02:51:44.804Z,3.75
2023-05-18T02:54:11.447Z,3.22
2023-05-18T02:56:38.528Z,3.40
2023-05-18T02:59:07.932Z,3.70
2023-05-18T03:01:37.231Z,3.72
2023-05-18T03:04:06.696Z,3.42
2023-05-18T03:06:33.393Z,3.35
2023-05-18T03:08:59.966Z,3.28
2023-05-18T03:11:26.536Z,3.22
2023-05-18T03:13:53.123Z,3.13
2023-05-18T03:16:19.833Z,3.47
2023-05-18T03:18:46.885Z,3.38
2023-05-18T03:21:16.716Z,3.53
2023-05-18T03:23:43.251Z,3.28
2023-05-18T03:26:11.460Z,3.13
2023-05-18T03:28:38.715Z,3.50
2023-05-18T03:31:05.710Z,3.30
2023-05-18T03:33:32.363Z,3.70
2023-05-18T03:36:03.548Z,3.63
2023-05-18T03:38:33.089Z,3.78
2023-05-18T03:41:02.495Z,3.50
2023-05-18T03:43:32.367Z,3.38
2023-05-18T03:45:58.962Z,3.22
2023-05-18T03:48:27.232Z,3.22
2023-05-18T03:50:53.753Z,3.03
2023-05-18T03:53:21.568Z,3.22
2023-05-18T03:55:51.714Z,3.33
2023-05-18T03:58:21.137Z,3.05
2023-05-18T04:00:49.464Z,3.70
2023-05-18T04:03:21.548Z,3.50
2023-05-18T04:05:49.699Z,3.60
2023-05-18T04:08:18.056Z,3.17
2023-05-18T04:10:45.541Z,3.70
2023-05-18T04:13:12.425Z,3.42
2023-05-18T04:15:39.000Z,3.25
2023-05-18T04:18:05.666Z,3.30
2023-05-18T04:20:32.382Z,3.67
2023-05-18T04:22:59.071Z,3.50
2023-05-18T04:25:28.063Z,3.58
2023-05-18T04:27:56.112Z,3.15
2023-05-18T04:30:23.410Z,3.42
2023-05-18T04:32:51.091Z,3.58
2023-05-18T04:35:18.598Z,3.97
2023-05-18T04:37:45.315Z,4.03
2023-05-18T04:40:17.523Z,3.28
2023-05-18T04:42:48.443Z,3.70
2023-05-18T04:45:17.167Z,3.30
2023-05-18T04:47:46.857Z,3.53
2023-05-18T04:50:16.047Z,3.80
2023-05-18T04:52:48.455Z,3.75
2023-05-18T04:55:20.068Z,3.72
2023-05-18T04:57:47.636Z,3.20
2023-05-18T05:00:15.054Z,3.67
2023-05-18T05:02:41.617Z,4.20
2023-05-18T05:05:08.792Z,3.55
2023-05-18T05:07:35.349Z,4.00
2023-05-18T05:10:02.270Z,3.92
2023-05-18T05:12:28.884Z,4.13
2023-05-18T05:14:55.594Z,3.85
2023-05-18T05:17:24.140Z,4.00
2023-05-18T05:19:53.678Z,4.07
2023-05-18T05:22:20.435Z,3.78
2023-05-18T05:24:47.073Z,4.50
2023-05-18T05:27:13.644Z,3.95
2023-05-18T05:29:40.212Z,3.90
2023-05-18T05:32:07.273Z,4.47
2023-05-18T05:34:33.780Z,3.97
2023-05-18T05:37:00.271Z,4.35
2023-05-18T05:39:26.817Z,4.30
2023-05-18T05:41:53.343Z,3.67
2023-05-18T05:44:19.830Z,3.88
2023-05-18T05:46:46.420Z,3.92
2023-05-18T05:49:12.922Z,4.20
2023-05-18T05:51:39.490Z,4.40
2023-05-18T05:54:06.088Z,3.90
2023-05-18T05:56:32.622Z,4.40
2023-05-18T05:58:59.521Z,4.18
2023-05-18T06:01:26.151Z,3.65
2023-05-18T06:03:52.698Z,3.63
2023-05-18T06:06:19.279Z,4.70
2023-05-18T06:08:45.770Z,4.03
2023-05-18T06:11:12.806Z,4.47
2023-05-18T06:13:39.432Z,4.18
2023-05-18T06:16:06.083Z,4.05
2023-05-18T06:18:32.689Z,3.80
2023-05-18T06:20:59.258Z,4.10
2023-05-18T06:23:26.154Z,4.32
2023-05-18T06:25:55.209Z,4.30
2023-05-18T06:28:21.977Z,4.10
2023-05-18T06:30:48.656Z,4.25
2023-05-18T06:33:15.228Z,4.95
2023-05-18T06:35:42.234Z,4.35
2023-05-18T06:38:08.880Z,4.55
2023-05-18T06:40:35.595Z,4.88
2023-05-18T06:43:02.282Z,3.70
2023-05-18T06:45:29.024Z,3.55
2023-05-18T06:47:55.949Z,4.03
2023-05-18T06:50:23.020Z,4.22
2023-05-18T06:52:49.604Z,3.70
2023-05-18T06:55:16.201Z,3.83
2023-05-18T06:57:42.966Z,3.60
2023-05-18T07:00:12.385Z,3.60
2023-05-18T07:02:39.939Z,3.63
2023-05-18T07:05:09.057Z,3.53
2023-05-18T07:07:37.680Z,3.38
2023-05-18T07:10:04.903Z,3.67
2023-05-18T07:12:31.503Z,4.05
2023-05-18T07:14:58.031Z,3.10
2023-05-18T07:17:24.614Z,3.13
2023-05-18T07:19:51.142Z,3.55
2023-05-18T07:22:17.698Z,3.10
2023-05-18T07:24:44.227Z,3.25
2023-05-18T07:27:11.037Z,3.72
2023-05-18T07:29:37.687Z,4.22
2023-05-18T07:32:04.544Z,3.65
2023-05-18T07:34:31.415Z,3.72
2023-05-18T07:36:58.236Z,3.47
2023-05-18T07:39:28.836Z,3.70
2023-05-18T07:41:56.396Z,3.50
2023-05-18T07:44:22.982Z,3.72
2023-05-18T07:46:49.689Z,3.70
2023-05-18T07:49:16.333Z,4.22
2023-05-18T07:51:42.851Z,2.95
2023-05-18T07:54:09.386Z,3.38
2023-05-18T07:56:36.115Z,3.17
2023-05-18T07:59:02.975Z,3.58
2023-05-18T08:01:30.348Z,3.00
2023-05-18T08:03:57.103Z,2.92
2023-05-18T08:06:24.088Z,3.15
2023-05-18T08:08:50.693Z,3.13
2023-05-18T08:11:17.319Z,2.97
2023-05-18T08:13:43.933Z,3.03
2023-05-18T08:16:12.349Z,2.67
2023-05-18T08:18:39.471Z,2.83
2023-05-18T08:21:09.382Z,3.10
2023-05-18T08:23:36.633Z,2.80
2023-05-18T08:26:03.653Z,3.08
2023-05-18T08:28:31.421Z,3.13
2023-05-18T08:30:58.440Z,3.30
2023-05-18T08:33:25.770Z,2.90
2023-05-18T08:35:52.696Z,2.80
2023-05-18T08:38:19.363Z,3.47
2023-05-18T08:41:11.240Z,3.13
2023-05-18T08:43:40.666Z,2.78
2023-05-18T08:46:26.371Z,2.83
2023-05-18T08:48:54.909Z,3.03
2023-05-18T08:51:29.856Z,3.72
2023-05-18T08:53:57.149Z,3.40
2023-05-18T08:56:25.228Z,2.78
2023-05-18T08:58:55.714Z,3.20
2023-05-18T09:01:28.372Z,3.20
2023-05-18T09:04:00.691Z,3.25
2023-05-18T09:06:28.542Z,3.60
2023-05-18T09:08:58.232Z,3.50
2023-05-18T09:11:26.959Z,3.30
2023-05-18T09:13:54.804Z,3.00
2023-05-18T09:16:21.462Z,3.40
2023-05-18T09:18:48.063Z,3.80
2023-05-18T09:21:14.648Z,3.38
2023-05-18T09:23:41.576Z,3.40
2023-05-18T09:26:11.522Z,3.88
2023-05-18T09:28:39.468Z,3.55
2023-05-18T09:31:09.084Z,3.30
2023-05-18T09:33:37.553Z,3.72
2023-05-18T09:36:06.066Z,3.53
2023-05-18T09:38:45.734Z,3.35
2023-05-18T09:41:17.507Z,3.20
2023-05-18T09:46:21.015Z,3.30
2023-05-18T09:48:51.452Z,3.42
2023-05-18T09:51:18.342Z,3.58
2023-05-18T09:53:49.716Z,3.03
2023-05-18T09:56:17.916Z,3.63
2023-05-18T09:58:46.071Z,3.58
2023-05-18T10:01:12.597Z,3.55
2023-05-18T10:03:39.408Z,3.03
2023-05-18T10:06:08.210Z,3.50
2023-05-18T10:08:36.054Z,2.92
2023-05-18T10:11:03.321Z,3.38
2023-05-18T10:13:31.796Z,3.30
2023-05-18T10:16:07.517Z,3.67
2023-05-18T10:18:38.710Z,3.90
2023-05-18T10:21:09.762Z,2.97
2023-05-18T10:23:37.243Z,3.55
2023-05-18T10:26:07.758Z,3.15
2023-05-18T10:28:42.364Z,3.63
2023-05-18T10:31:09.460Z,3.15
2023-05-18T10:33:37.947Z,3.63
2023-05-18T10:36:05.508Z,3.33
2023-05-18T10:38:34.569Z,3.38
2023-05-18T10:41:01.668Z,3.17
2023-05-18T10:43:28.947Z,3.53
2023-05-18T10:46:09.231Z,3.35
2023-05-18T10:48:39.198Z,3.63
2023-05-18T10:51:07.961Z,3.58
2023-05-18T10:53:34.804Z,2.88
2023-05-18T10:56:01.781Z,2.83
2023-05-18T10:58:30.742Z,3.20
2023-05-18T11:00:59.374Z,3.17
2023-05-18T11:03:27.410Z,2.85
2023-05-18T11:06:10.256Z,3.20
2023-05-18T11:08:47.886Z,3.28
2023-05-18T11:11:19.869Z,2.97
2023-05-18T11:13:51.366Z,2.95
2023-05-18T11:16:19.502Z,3.13
2023-05-18T11:18:50.872Z,2.92
2023-05-18T11:21:32.611Z,3.30
2023-05-18T11:24:17.722Z,3.22
2023-05-18T11:26:49.926Z,2.55
2023-05-18T11:29:46.495Z,2.97
2023-05-18T11:32:32.587Z,3.17
2023-05-18T11:34:59.910Z,2.80
2023-05-18T11:37:55.855Z,3.25
2023-05-18T11:40:44.792Z,2.70
2023-05-18T11:43:27.690Z,2.97
2023-05-18T11:45:58.948Z,3.10
2023-05-18T11:48:27.493Z,3.08
2023-05-18T11:50:55.008Z,2.90
2023-05-18T11:53:26.384Z,3.10
2023-05-18T11:55:54.728Z,3.25
2023-05-18T11:58:26.293Z,2.47
2023-05-18T12:00:55.879Z,2.63
2023-05-18T12:03:26.653Z,3.08
2023-05-18T12:05:54.124Z,2.58
2023-05-18T12:08:21.805Z,3.47
2023-05-18T12:10:51.116Z,3.83
2023-05-18T12:13:17.955Z,3.10
2023-05-18T12:15:45.605Z,2.80
2023-05-18T12:18:12.565Z,2.78
2023-05-18T12:20:40.818Z,2.85
2023-05-18T12:23:07.519Z,3.03
2023-05-18T12:25:34.209Z,3.15
2023-05-18T12:28:02.090Z,3.15
2023-05-18T12:30:35.076Z,2.97
2023-05-18T12:33:03.202Z,2.45
2023-05-18T12:35:31.146Z,3.15
2023-05-18T12:38:00.815Z,2.83
2023-05-18T12:40:28.554Z,2.95
2023-05-18T12:42:59.531Z,2.67
2023-05-18T12:45:28.454Z,2.90
2023-05-18T12:47:56.212Z,2.78
2023-05-18T12:50:26.452Z,2.95
2023-05-18T12:52:55.287Z,2.47
2023-05-18T12:55:22.706Z,3.00
2023-05-18T12:58:18.102Z,2.22
2023-05-18T13:00:49.180Z,2.53
2023-05-18T13:03:22.206Z,2.50
2023-05-18T13:06:12.365Z,2.30
2023-05-18T13:08:39.023Z,2.92
2023-05-18T13:11:13.796Z,2.80
2023-05-18T13:14:05.041Z,2.70
2023-05-18T13:16:34.648Z,2.70
2023-05-18T13:19:04.355Z,2.90
2023-05-18T13:21:31.097Z,2.55
2023-05-18T13:23:57.825Z,2.78
2023-05-18T13:26:28.788Z,3.15
2023-05-18T13:28:56.549Z,2.80
2023-05-18T13:31:25.180Z,3.40
2023-05-18T13:33:52.114Z,2.22
2023-05-18T13:36:19.368Z,2.95
2023-05-18T13:38:46.060Z,2.70
2023-05-18T13:41:14.969Z,2.40
2023-05-18T13:43:42.672Z,2.80
2023-05-18T13:46:12.032Z,2.33
2023-05-18T13:48:38.675Z,2.70
2023-05-18T13:51:05.272Z,2.55
2023-05-18T13:53:31.884Z,2.42
2023-05-18T13:55:58.406Z,3.08
2023-05-18T13:58:24.985Z,2.30
2023-05-18T14:00:53.729Z,2.45
2023-05-18T14:03:20.460Z,2.92
2023-05-18T14:05:47.115Z,2.83
2023-05-18T14:08:13.677Z,2.65
2023-05-18T14:10:40.459Z,3.00
2023-05-18T14:13:08.474Z,2.58
2023-05-18T14:15:35.019Z,2.60
2023-05-18T14:18:01.620Z,2.58
2023-05-18T14:20:29.335Z,2.50
2023-05-18T14:22:56.371Z,2.67
2023-05-18T14:25:22.848Z,2.45
2023-05-18T14:27:49.402Z,2.90
2023-05-18T14:30:16.076Z,2.20
2023-05-18T14:32:42.686Z,2.25
2023-05-18T14:35:09.425Z,3.10
2023-05-18T14:37:35.992Z,2.50
2023-05-18T14:40:02.519Z,2.50
2023-05-18T14:42:29.597Z,2.25
2023-05-18T14:44:56.144Z,2.55
2023-05-18T14:47:23.800Z,2.42
2023-05-18T14:49:50.411Z,2.38
2023-05-18T14:52:16.964Z,2.40
2023-05-18T14:54:43.556Z,2.38
2023-05-18T14:57:10.344Z,2.33
2023-05-18T14:59:36.957Z,2.40
2023-05-18T15:02:03.565Z,2.42
2023-05-18T15:04:30.139Z,2.55
2023-05-18T15:06:57.131Z,2.67
2023-05-18T15:09:25.288Z,2.47
2023-05-18T15:11:53.234Z,2.50
2023-05-18T15:14:20.029Z,2.70
2023-05-18T15:16:46.842Z,2.42
2023-05-18T15:19:13.643Z,2.38
2023-05-18T15:21:40.325Z,2.75
2023-05-18T15:24:07.313Z,2.47
2023-05-18T15:26:34.174Z,3.05
2023-05-18T15:29:00.693Z,2.38
2023-05-18T15:31:27.251Z,2.65
2023-05-18T15:33:53.802Z,2.63
2023-05-18T15:36:21.659Z,2.40
2023-05-18T15:38:48.218Z,2.50
2023-05-18T15:41:14.867Z,2.45
2023-05-18T15:43:41.831Z,2.70
2023-05-18T15:46:08.466Z,2.25
2023-05-18T15:48:35.033Z,2.22
2023-05-18T15:51:01.636Z,2.42
2023-05-18T15:53:28.222Z,2.30
2023-05-18T15:55:58.759Z,2.30
2023-05-18T15:58:26.466Z,2.63
2023-05-18T16:00:57.137Z,2.63
2023-05-18T16:03:23.877Z,2.40
2023-05-18T16:05:50.576Z,2.45
2023-05-18T16:08:17.101Z,2.75
2023-05-18T16:10:43.625Z,2.47
2023-05-18T16:13:10.115Z,2.13
2023-05-18T16:15:36.961Z,2.47
2023-05-18T16:18:03.849Z,1.90
2023-05-18T16:20:30.784Z,2.47
2023-05-18T16:22:58.322Z,2.13
2023-05-18T16:25:25.296Z,2.95
2023-05-18T16:27:51.997Z,2.70
2023-05-18T16:30:18.547Z,2.60
2023-05-18T16:32:45.223Z,2.20
2023-05-18T16:35:12.296Z,2.75
2023-05-18T16:37:39.147Z,2.28
2023-05-18T16:40:06.725Z,2.28
2023-05-18T16:42:33.422Z,2.35
2023-05-18T16:44:59.974Z,2.30
2023-05-18T16:47:27.693Z,2.70
2023-05-18T16:49:54.578Z,2.65
2023-05-18T16:52:21.573Z,2.67
2023-05-18T16:54:48.296Z,2.63
2023-05-18T16:57:15.187Z,2.72
2023-05-18T16:59:44.988Z,2.30
2023-05-18T17:02:13.980Z,2.85
2023-05-18T17:04:41.402Z,2.53
2023-05-18T17:07:09.908Z,2.28
2023-05-18T17:09:40.116Z,2.80
2023-05-18T17:12:07.828Z,2.67
2023-05-18T17:14:34.425Z,2.70
2023-05-18T17:17:01.130Z,2.80
2023-05-18T17:19:27.676Z,2.70
2023-05-18T17:21:54.473Z,2.83
2023-05-18T17:24:20.991Z,2.60
2023-05-18T17:26:47.492Z,2.38
2023-05-18T17:29:17.129Z,2.50
2023-05-18T17:31:45.789Z,2.15
2023-05-18T17:34:12.418Z,2.50
2023-05-18T17:36:39.085Z,2.72
2023-05-18T17:39:05.638Z,2.40
2023-05-18T17:41:33.154Z,2.40
2023-05-18T17:44:02.321Z,2.22
2023-05-18T17:46:29.112Z,2.55
2023-05-18T17:48:55.821Z,2.15
2023-05-18T17:51:24.714Z,2.15
2023-05-18T17:53:51.633Z,2.35
2023-05-18T17:56:18.384Z,2.63
2023-05-18T17:58:45.012Z,2.70
2023-05-18T18:01:12.145Z,2.47
2023-05-18T18:03:39.014Z,2.30
2023-05-18T18:06:05.838Z,2.33
2023-05-18T18:08:32.407Z,2.50
2023-05-18T18:10:59.031Z,2.13
2023-05-18T18:13:26.117Z,2.63
2023-05-18T18:15:52.639Z,2.55
2023-05-18T18:18:19.253Z,2.33
2023-05-18T18:20:45.915Z,2.38
2023-05-18T18:23:12.438Z,2.20
2023-05-18T18:25:39.034Z,2.83
2023-05-18T18:28:05.579Z,2.38
2023-05-18T18:30:32.393Z,2.55
2023-05-18T18:32:59.300Z,2.20
2023-05-18T18:35:26.114Z,2.80
2023-05-18T18:37:52.624Z,2.63
2023-05-18T18:40:19.225Z,2.33
2023-05-18T18:42:47.262Z,2.50
2023-05-18T18:45:13.947Z,2.40
2023-05-18T18:47:40.515Z,2.42
2023-05-18T18:50:07.591Z,2.40
2023-05-18T18:52:34.108Z,3.03
2023-05-18T18:55:01.249Z,2.90
2023-05-18T18:57:27.753Z,2.65
2023-05-18T18:59:56.991Z,1.88
2023-05-18T19:02:23.673Z,2.53
2023-05-18T19:04:50.335Z,2.80
2023-05-18T19:07:16.891Z,2.70
2023-05-18T19:09:43.490Z,2.80
2023-05-18T19:12:10.486Z,2.33
2023-05-18T19:14:37.703Z,3.05
2023-05-18T19:17:04.564Z,2.88
2023-05-18T19:19:32.605Z,2.45
2023-05-18T19:21:59.228Z,2.65
2023-05-18T19:24:25.784Z,2.70
2023-05-18T19:26:55.012Z,3.03
2023-05-18T19:29:21.617Z,2.35
2023-05-18T19:31:48.204Z,2.55
2023-05-18T19:34:14.700Z,2.60
2023-05-18T19:36:44.504Z,2.53
2023-05-18T19:39:10.987Z,2.38
2023-05-18T19:41:38.135Z,3.00
2023-05-18T19:44:04.627Z,2.65
2023-05-18T19:46:31.407Z,2.95
2023-05-18T19:48:57.930Z,2.33
2023-05-18T19:51:27.143Z,2.42
2023-05-18T19:53:53.621Z,3.03
2023-05-18T19:56:22.144Z,2.83
2023-05-18T19:58:49.413Z,2.58
2023-05-18T20:01:19.183Z,2.45
2023-05-18T20:03:47.121Z,2.88
2023-05-18T20:06:16.992Z,2.83
2023-05-18T20:08:43.602Z,2.80
2023-05-18T20:11:16.480Z,3.05
2023-05-18T20:13:43.774Z,2.72
2023-05-18T20:16:10.347Z,2.97
2023-05-18T20:18:37.480Z,2.92
2023-05-18T20:21:04.179Z,3.50
2023-05-18T20:23:30.743Z,3.35
2023-05-18T20:25:57.326Z,3.72
2023-05-18T20:28:26.132Z,3.95
2023-05-18T20:30:52.658Z,3.70
2023-05-18T20:33:19.364Z,4.15
2023-05-18T20:35:46.057Z,3.78
2023-05-18T20:38:16.141Z,3.47
2023-05-18T20:40:46.294Z,3.63
2023-05-18T20:43:18.083Z,3.42
2023-05-18T20:48:24.946Z,3.28
2023-05-18T20:50:52.282Z,3.10
2023-05-18T20:53:19.603Z,3.30
2023-05-18T20:55:49.843Z,4.38
2023-05-18T20:58:19.858Z,3.60
2023-05-18T21:00:46.655Z,4.00
2023-05-18T21:03:21.655Z,3.75
2023-05-18T21:05:49.868Z,4.15
2023-05-18T21:08:21.327Z,4.30
2023-05-18T21:10:47.812Z,5.65
2023-05-18T21:13:15.056Z,5.53
2023-05-18T21:15:41.689Z,8.27
2023-05-18T21:18:08.432Z,8.23
2023-05-18T21:20:34.975Z,8.65
2023-05-18T21:23:01.508Z,8.85
2023-05-18T21:25:31.132Z,8.07
2023-05-18T21:28:01.068Z,7.82
2023-05-18T21:30:27.608Z,7.05
2023-05-18T21:32:54.493Z,7.18
2023-05-18T21:35:21.065Z,7.57
2023-05-18T21:37:51.068Z,6.20
2023-05-18T21:40:20.941Z,5.55
2023-05-18T21:42:47.511Z,5.53
2023-05-18T21:45:14.567Z,4.90
2023-05-18T21:47:41.153Z,5.00
2023-05-18T21:50:11.986Z,4.70
2023-05-18T21:52:38.472Z,4.90
2023-05-18T21:55:05.659Z,5.32
2023-05-18T21:57:33.024Z,5.20
2023-05-18T22:00:02.282Z,4.65
2023-05-18T22:02:28.835Z,4.95
2023-05-18T22:04:55.669Z,5.00
2023-05-18T22:07:22.184Z,4.40
2023-05-18T22:09:50.771Z,4.75
2023-05-18T22:12:17.817Z,4.25
2023-05-18T22:14:44.342Z,5.10
2023-05-18T22:17:10.935Z,4.18
2023-05-18T22:19:37.571Z,4.60
2023-05-18T22:22:04.216Z,4.10
2023-05-18T22:24:34.005Z,4.25
2023-05-18T22:27:05.977Z,4.32
2023-05-18T22:31:59.068Z,4.13
2023-05-18T22:34:25.784Z,4.00
2023-05-18T22:36:52.321Z,4.15
2023-05-18T22:39:19.072Z,4.10
2023-05-18T22:41:45.625Z,3.92
2023-05-18T22:44:12.677Z,3.45
2023-05-18T22:46:42.343Z,4.63
2023-05-18T22:49:08.916Z,4.35
2023-05-18T22:51:38.417Z,4.15
2023-05-18T22:54:05.031Z,4.28
2023-05-18T22:56:31.602Z,4.30
2023-05-18T22:58:58.153Z,4.18
2023-05-18T23:01:24.825Z,4.40
2023-05-18T23:03:51.383Z,3.80
2023-05-18T23:06:22.325Z,3.60
2023-05-18T23:08:53.219Z,4.20
2023-05-18T23:11:19.918Z,3.72
2023-05-18T23:13:46.421Z,3.60
2023-05-18T23:16:13.033Z,3.53
2023-05-18T23:18:39.594Z,3.92
2023-05-18T23:21:14.890Z,3.92
2023-05-18T23:23:45.596Z,3.88
2023-05-18T23:26:12.650Z,3.40
2023-05-18T23:28:39.216Z,3.60
2023-05-18T23:31:05.837Z,3.55
2023-05-18T23:33:32.861Z,3.45
2023-05-18T23:36:03.946Z,3.83
2023-05-18T23:38:35.049Z,3.80
2023-05-18T23:41:03.500Z,3.17
2023-05-18T23:43:30.428Z,3.47
2023-05-18T23:45:59.554Z,3.97
2023-05-18T23:48:38.433Z,3.40
2023-05-18T23:51:05.703Z,3.80
2023-05-18T23:53:34.472Z,3.42
2023-05-18T23:56:06.000Z,3.65
2023-05-18T23:58:32.811Z,3.72
